Time;durP1;ratioP1;P1;durP2;ratioP2;P2;SDS_P1;SDS_P2;PMS_P1;PMS_P2;Temp;Humidity;BMP_temperature;BMP_pressure;BME280_temperature;BME280_humidity;BME280_pressure;Samples;Min_cycle;Max_cycle;Signal;HPM_P1;HPM_P2
2023/09/16 04:30:08;;;;;;;;;9.00;8.00;;;;;31.46;33.82;100544.59;6050213;22;46268;31
2023/09/16 04:32:34;;;;;;;;;11.50;10.50;;;;;31.47;33.65;100549.94;4902773;28;45461;-58
2023/09/16 04:34:59;;;;;;;;;9.50;8.75;;;;;31.42;34.43;100551.63;4901816;29;62220;-59
2023/09/16 04:37:25;;;;;;;;;7.00;7.00;;;;;31.39;34.34;100552.06;4903404;28;46119;-59
2023/09/16 04:39:51;;;;;;;;;8.00;8.00;;;;;31.35;34.69;100546.06;4890722;29;45264;-58
2023/09/16 04:42:16;;;;;;;;;6.25;6.25;;;;;31.38;34.72;100550.34;4902952;28;45275;-59
2023/09/16 04:44:41;;;;;;;;;8.75;8.75;;;;;31.36;34.77;100549.69;4903037;28;45478;-58
2023/09/16 04:47:12;;;;;;;;;10.00;10.00;;;;;31.33;34.57;100544.56;4902815;29;56105;-59
2023/09/16 04:49:38;;;;;;;;;8.00;8.00;;;;;31.31;34.15;100543.91;4903676;28;45385;-58
2023/09/16 04:52:06;;;;;;;;;7.25;7.25;;;;;31.26;34.34;100532.63;4902915;28;45391;-60
2023/09/16 04:54:35;;;;;;;;;7.50;7.50;;;;;31.28;34.95;100545.22;4902646;28;45220;-58
2023/09/16 04:57:01;;;;;;;;;9.25;9.25;;;;;31.17;34.35;100543.91;4902965;29;46191;-58
2023/09/16 04:59:27;;;;;;;;;7.00;7.00;;;;;31.17;34.40;100548.56;4903106;28;45373;-59
2023/09/16 05:01:52;;;;;;;;;9.25;9.25;;;;;31.14;34.71;100554.53;4903001;28;45302;-59
2023/09/16 05:04:18;;;;;;;;;7.00;5.75;;;;;31.13;34.40;100548.16;4902742;28;45327;-59
2023/09/16 05:06:43;;;;;;;;;8.00;8.00;;;;;31.17;34.60;100552.19;4902774;28;46215;-58
2023/09/16 05:09:09;;;;;;;;;7.75;6.75;;;;;31.18;34.71;100545.59;4903840;28;45315;-53
2023/09/16 05:11:34;;;;;;;;;7.25;7.25;;;;;30.99;34.92;100521.44;4917193;28;45408;-54
2023/09/16 05:13:59;;;;;;;;;9.50;7.75;;;;;31.16;35.14;100555.19;4903269;28;45322;-52
2023/09/16 05:16:25;;;;;;;;;6.75;6.75;;;;;31.07;34.83;100548.13;4903080;28;46275;-52
2023/09/16 05:18:50;;;;;;;;;7.25;7.25;;;;;31.04;34.71;100562.38;4903338;28;46675;-55
2023/09/16 05:21:15;;;;;;;;;8.50;8.50;;;;;30.99;34.83;100564.88;4902670;29;54790;-53
2023/09/16 05:23:41;;;;;;;;;8.50;6.75;;;;;30.92;34.59;100567.63;4903324;28;45249;-51
2023/09/16 05:26:06;;;;;;;;;8.25;8.25;;;;;30.90;35.45;100571.66;4902856;28;45285;-53
2023/09/16 05:28:31;;;;;;;;;8.25;7.00;;;;;30.88;34.90;100574.63;4903038;28;45218;-51
2023/09/16 05:30:57;;;;;;;;;10.50;8.25;;;;;30.86;34.97;100567.63;4909142;28;45438;-54
2023/09/16 05:33:24;;;;;;;;;11.50;7.50;;;;;30.83;35.01;100571.66;4922010;28;45241;-54
2023/09/16 05:35:50;;;;;;;;;7.00;7.00;;;;;30.78;35.35;100566.75;4921779;28;46074;-54
2023/09/16 05:38:15;;;;;;;;;6.75;6.75;;;;;30.67;35.59;100566.47;4921437;28;45363;-50
2023/09/16 05:40:41;;;;;;;;;8.00;8.00;;;;;30.64;35.33;100558.56;4936381;28;48254;-53
2023/09/16 05:43:07;;;;;;;;;11.75;9.00;;;;;30.72;35.99;100584.16;4921808;28;45463;-55
2023/09/16 05:45:32;;;;;;;;;10.75;8.25;;;;;30.71;35.58;100563.06;4921452;28;45302;-55
2023/09/16 05:48:02;;;;;;;;;5.00;5.00;;;;;30.74;35.65;100570.97;4921420;28;45347;-50
2023/09/16 05:50:27;;;;;;;;;8.75;7.00;;;;;30.68;35.94;100576.47;4921819;28;45197;-55
2023/09/16 05:52:53;;;;;;;;;7.00;7.00;;;;;30.67;35.97;100572.84;4921700;28;45163;-54
2023/09/16 05:55:18;;;;;;;;;7.75;7.00;;;;;30.65;36.39;100571.34;4921074;28;57979;-52
2023/09/16 05:57:43;;;;;;;;;8.00;7.00;;;;;30.55;36.37;100579.16;4921359;28;45213;-53
2023/09/16 06:00:09;;;;;;;;;8.00;8.00;;;;;30.64;36.12;100578.78;4921731;28;45744;-52
2023/09/16 06:02:38;;;;;;;;;8.75;6.50;;;;;30.67;36.17;100574.75;4936034;28;45319;-56
2023/09/16 06:05:05;;;;;;;;;10.75;9.00;;;;;30.55;35.74;100590.22;4921384;28;45349;-55
